createdAt,value
2023-05-08T00:02:01.408Z,21.56
2023-05-08T00:04:32.736Z,21.91
2023-05-08T00:07:04.223Z,21.88
2023-05-08T00:09:35.649Z,21.48
2023-05-08T00:12:07.143Z,21.77
2023-05-08T00:14:38.347Z,21.41
2023-05-08T00:17:10.167Z,21.67
2023-05-08T00:19:41.683Z,21.21
2023-05-08T00:22:12.975Z,21.31
2023-05-08T00:24:43.927Z,21.59
2023-05-08T00:27:15.413Z,22.21
2023-05-08T00:29:47.452Z,22.11
2023-05-08T00:32:19.420Z,22.31
2023-05-08T00:34:50.303Z,21.92
2023-05-08T00:37:21.512Z,22.35
2023-05-08T00:39:52.485Z,21.77
2023-05-08T00:42:23.565Z,22.16
2023-05-08T00:44:55.528Z,22.30
2023-05-08T00:47:26.915Z,22.53
2023-05-08T00:49:58.693Z,22.08
2023-05-08T00:52:31.872Z,21.70
2023-05-08T00:55:04.917Z,21.64
2023-05-08T00:57:37.076Z,21.75
2023-05-08T01:00:09.226Z,21.49
2023-05-08T01:02:42.105Z,21.46
2023-05-08T01:05:14.442Z,21.68
2023-05-08T01:07:45.985Z,21.85
2023-05-08T01:10:17.904Z,21.80
2023-05-08T01:13:34.521Z,21.98
2023-05-08T01:16:19.654Z,21.96
2023-05-08T01:19:09.569Z,22.12
2023-05-08T01:21:52.029Z,22.10
2023-05-08T01:24:41.207Z,22.10
2023-05-08T01:27:43.413Z,22.11
2023-05-08T01:30:52.819Z,22.49
2023-05-08T01:33:59.610Z,22.56
2023-05-08T01:36:36.850Z,22.72
2023-05-08T01:39:43.056Z,22.09
2023-05-08T01:42:41.922Z,22.32
2023-05-08T01:45:31.254Z,21.83
2023-05-08T01:48:17.397Z,21.95
2023-05-08T01:50:57.864Z,21.52
2023-05-08T01:53:33.167Z,21.30
2023-05-08T01:56:10.591Z,21.24
2023-05-08T01:58:42.526Z,20.95
2023-05-08T02:01:15.419Z,21.08
2023-05-08T02:03:47.540Z,21.08
2023-05-08T02:06:21.244Z,21.21
2023-05-08T02:08:53.341Z,21.63
2023-05-08T02:11:27.028Z,21.33
2023-05-08T02:14:12.259Z,20.85
2023-05-08T02:16:48.474Z,21.25
2023-05-08T02:19:23.621Z,21.66
2023-05-08T02:21:59.576Z,21.11
2023-05-08T02:24:42.483Z,21.36
2023-05-08T02:27:19.280Z,21.42
2023-05-08T02:29:56.564Z,21.47
2023-05-08T02:32:34.066Z,21.66
2023-05-08T02:35:08.713Z,21.67
2023-05-08T02:37:47.729Z,21.35
2023-05-08T02:40:21.990Z,21.31
2023-05-08T02:42:59.876Z,21.57
2023-05-08T02:45:56.114Z,21.76
2023-05-08T02:49:02.469Z,21.76
2023-05-08T02:51:51.939Z,21.91
2023-05-08T02:54:36.497Z,22.05
2023-05-08T02:57:26.387Z,21.98
2023-05-08T03:00:20.062Z,22.30
2023-05-08T03:03:14.202Z,22.07
2023-05-08T03:05:55.128Z,22.08
2023-05-08T03:08:39.947Z,22.24
2023-05-08T03:11:18.649Z,22.52
2023-05-08T03:13:51.381Z,21.96
2023-05-08T03:16:32.189Z,22.18
2023-05-08T03:19:14.393Z,22.45
2023-05-08T03:21:49.053Z,22.35
2023-05-08T03:24:28.596Z,22.14
2023-05-08T03:27:03.090Z,22.53
2023-05-08T03:29:37.782Z,21.92
2023-05-08T03:32:11.548Z,21.43
2023-05-08T03:34:45.379Z,21.55
2023-05-08T03:37:19.876Z,21.17
2023-05-08T03:40:00.203Z,20.88
2023-05-08T03:42:34.128Z,21.07
2023-05-08T03:45:10.933Z,20.72
2023-05-08T03:47:44.428Z,20.64
2023-05-08T03:50:17.312Z,20.64
2023-05-08T03:52:53.474Z,20.39
2023-05-08T03:55:25.180Z,20.31
2023-05-08T03:58:03.994Z,20.12
2023-05-08T04:01:12.989Z,20.09
2023-05-08T04:04:15.389Z,20.13
2023-05-08T04:07:03.167Z,19.99
2023-05-08T04:10:00.790Z,20.03
2023-05-08T04:13:11.537Z,20.03
2023-05-08T04:16:25.596Z,20.02
2023-05-08T04:19:27.826Z,19.86
2023-05-08T04:22:04.816Z,19.71
2023-05-08T04:24:45.909Z,19.66
2023-05-08T04:27:20.328Z,19.76
2023-05-08T04:29:52.650Z,19.72
2023-05-08T04:32:25.445Z,19.82
2023-05-08T04:37:57.792Z,19.48
2023-05-08T04:40:30.385Z,19.51
2023-05-08T04:43:05.814Z,19.47
2023-05-08T04:45:37.092Z,19.51
2023-05-08T04:48:09.374Z,19.44
2023-05-08T04:50:40.524Z,19.39
2023-05-08T04:53:11.953Z,19.31
2023-05-08T04:55:43.647Z,19.35
2023-05-08T04:58:15.441Z,19.24
2023-05-08T05:00:46.439Z,19.18
2023-05-08T05:03:17.975Z,19.09
2023-05-08T05:05:49.348Z,19.15
2023-05-08T05:08:20.792Z,19.15
2023-05-08T05:10:52.187Z,19.10
2023-05-08T05:13:23.204Z,19.02
2023-05-08T05:15:55.816Z,19.03
2023-05-08T05:18:27.732Z,18.96
2023-05-08T05:21:00.790Z,18.81
2023-05-08T05:23:33.613Z,18.89
2023-05-08T05:26:04.903Z,18.91
2023-05-08T05:28:35.882Z,18.89
2023-05-08T05:31:07.607Z,18.84
2023-05-08T05:33:39.764Z,18.94
2023-05-08T05:36:10.980Z,18.83
2023-05-08T05:38:42.240Z,18.84
2023-05-08T05:41:13.385Z,18.73
2023-05-08T05:43:44.707Z,18.77
2023-05-08T05:46:16.263Z,18.79
2023-05-08T05:48:48.127Z,18.74
2023-05-08T05:51:19.115Z,18.68
2023-05-08T05:53:50.556Z,18.86
2023-05-08T05:56:23.142Z,18.78
2023-05-08T05:58:54.743Z,18.75
2023-05-08T06:01:26.502Z,18.71
2023-05-08T06:03:57.484Z,18.65
2023-05-08T06:06:29.082Z,18.60
2023-05-08T06:09:01.232Z,18.58
2023-05-08T06:11:32.846Z,18.58
2023-05-08T06:14:04.285Z,18.59
2023-05-08T06:16:37.138Z,18.31
2023-05-08T06:19:09.638Z,18.29
2023-05-08T06:21:41.326Z,18.41
2023-05-08T06:24:13.191Z,18.20
2023-05-08T06:26:44.684Z,18.16
2023-05-08T06:29:16.034Z,18.14
2023-05-08T06:31:47.601Z,18.07
2023-05-08T06:34:18.951Z,17.97
2023-05-08T06:36:49.641Z,17.93
2023-05-08T06:39:21.117Z,17.92
2023-05-08T06:41:52.393Z,17.85
2023-05-08T06:44:32.590Z,17.96
2023-05-08T06:47:04.580Z,17.96
2023-05-08T06:49:39.424Z,17.99
2023-05-08T06:52:11.031Z,17.97
2023-05-08T06:54:43.520Z,17.93
2023-05-08T06:57:17.743Z,17.92
2023-05-08T06:59:49.196Z,17.83
2023-05-08T07:02:20.896Z,17.86
2023-05-08T07:04:51.598Z,17.83
2023-05-08T07:07:22.614Z,17.89
2023-05-08T07:09:53.925Z,17.74
2023-05-08T07:12:25.172Z,17.79
2023-05-08T07:14:57.910Z,17.72
2023-05-08T07:17:29.309Z,17.74
2023-05-08T07:20:00.166Z,17.75
2023-05-08T07:22:31.877Z,17.71
2023-05-08T07:25:03.229Z,17.56
2023-05-08T07:27:34.746Z,17.53
2023-05-08T07:30:07.022Z,17.54
2023-05-08T07:32:40.727Z,17.49
2023-05-08T07:35:14.250Z,17.51
2023-05-08T07:37:46.111Z,17.43
2023-05-08T07:40:17.863Z,17.53
2023-05-08T07:42:50.437Z,17.51
2023-05-08T07:45:21.716Z,17.45
2023-05-08T07:47:58.721Z,17.47
2023-05-08T07:50:30.706Z,17.50
2023-05-08T07:53:02.049Z,17.44
2023-05-08T07:55:33.346Z,17.40
2023-05-08T07:58:05.416Z,17.47
2023-05-08T08:00:36.991Z,17.45
2023-05-08T08:03:08.828Z,17.43
2023-05-08T08:05:41.133Z,17.37
2023-05-08T08:08:12.335Z,17.41
2023-05-08T08:10:43.776Z,17.27
2023-05-08T08:13:14.911Z,17.36
2023-05-08T08:15:46.427Z,17.32
2023-05-08T08:18:18.013Z,17.33
2023-05-08T08:20:49.354Z,17.20
2023-05-08T08:23:20.773Z,17.21
2023-05-08T08:25:53.032Z,17.13
2023-05-08T08:28:24.342Z,17.36
2023-05-08T08:30:55.661Z,17.29
2023-05-08T08:33:27.279Z,17.16
2023-05-08T08:35:58.014Z,17.22
2023-05-08T08:38:29.369Z,17.28
2023-05-08T08:41:01.066Z,17.23
2023-05-08T08:43:32.638Z,17.16
2023-05-08T08:46:16.045Z,17.18
2023-05-08T08:48:49.065Z,17.25
2023-05-08T08:51:43.169Z,17.23
2023-05-08T08:54:15.979Z,17.22
2023-05-08T08:56:48.673Z,17.22
2023-05-08T08:59:20.873Z,17.18
2023-05-08T09:01:59.023Z,17.23
2023-05-08T09:04:31.101Z,17.25
2023-05-08T09:07:04.380Z,17.26
2023-05-08T09:09:37.210Z,17.38
2023-05-08T09:12:09.363Z,17.51
2023-05-08T09:14:40.846Z,17.58
2023-05-08T09:17:12.623Z,17.60
2023-05-08T09:19:45.369Z,17.56
2023-05-08T09:22:16.945Z,17.66
2023-05-08T09:25:08.516Z,17.68
2023-05-08T09:27:39.914Z,17.77
2023-05-08T09:30:13.858Z,17.79
2023-05-08T09:32:47.134Z,17.84
2023-05-08T09:35:18.556Z,17.83
2023-05-08T09:37:50.282Z,17.88
2023-05-08T09:40:22.384Z,17.92
2023-05-08T09:42:53.673Z,17.86
2023-05-08T09:45:33.429Z,17.87
2023-05-08T09:48:04.884Z,17.82
2023-05-08T09:50:35.810Z,17.79
2023-05-08T09:53:07.654Z,17.76
2023-05-08T09:56:05.777Z,17.76
2023-05-08T09:58:44.654Z,17.76
2023-05-08T10:01:36.411Z,17.73
2023-05-08T10:04:07.525Z,17.64
2023-05-08T10:06:39.052Z,17.68
2023-05-08T10:09:16.987Z,17.65
2023-05-08T10:11:55.984Z,17.60
2023-05-08T10:14:27.742Z,17.54
2023-05-08T10:16:58.382Z,17.64
2023-05-08T10:19:39.417Z,17.56
2023-05-08T10:22:15.644Z,17.52
2023-05-08T10:24:47.153Z,17.52
2023-05-08T10:27:26.261Z,17.43
2023-05-08T10:30:00.029Z,17.52
2023-05-08T10:32:37.557Z,17.49
2023-05-08T10:35:12.284Z,17.45
2023-05-08T10:37:43.869Z,17.48
2023-05-08T10:40:17.404Z,17.42
2023-05-08T10:42:48.683Z,17.51
2023-05-08T10:45:19.591Z,17.48
2023-05-08T10:48:07.976Z,17.48
2023-05-08T10:50:47.128Z,17.49
2023-05-08T10:53:57.481Z,17.47
2023-05-08T10:56:29.928Z,17.43
2023-05-08T10:59:01.686Z,17.41
2023-05-08T11:01:33.520Z,17.41
2023-05-08T11:04:08.263Z,17.31
2023-05-08T11:06:48.160Z,17.38
2023-05-08T11:09:25.886Z,17.40
2023-05-08T11:12:25.552Z,17.35
2023-05-08T11:15:08.914Z,17.34
2023-05-08T11:17:47.910Z,17.42
2023-05-08T11:20:19.425Z,17.44
2023-05-08T11:22:51.074Z,17.51
2023-05-08T11:25:22.918Z,17.48
2023-05-08T11:27:54.005Z,17.46
2023-05-08T11:30:38.501Z,17.49
2023-05-08T11:33:13.220Z,17.52
2023-05-08T11:35:47.664Z,17.57
2023-05-08T11:38:38.035Z,17.57
2023-05-08T11:41:27.702Z,17.56
2023-05-08T11:44:10.878Z,17.60
2023-05-08T11:46:55.300Z,17.65
2023-05-08T11:49:29.791Z,17.59
2023-05-08T11:52:02.622Z,17.69
2023-05-08T11:54:34.971Z,17.67
2023-05-08T11:57:06.023Z,17.64
2023-05-08T11:59:40.509Z,17.55
2023-05-08T12:02:11.887Z,17.51
2023-05-08T12:04:47.873Z,17.43
2023-05-08T12:07:20.249Z,17.39
2023-05-08T12:09:51.500Z,17.42
2023-05-08T12:12:23.230Z,17.40
2023-05-08T12:14:55.496Z,17.40
2023-05-08T12:17:27.321Z,17.38
2023-05-08T12:20:05.569Z,17.35
2023-05-08T12:22:37.069Z,17.30
2023-05-08T12:25:10.725Z,17.28
2023-05-08T12:27:42.301Z,17.33
2023-05-08T12:30:16.425Z,17.30
2023-05-08T12:32:49.032Z,17.16
2023-05-08T12:35:20.744Z,17.28
2023-05-08T12:37:54.358Z,17.30
2023-05-08T12:40:44.133Z,17.27
2023-05-08T12:43:15.900Z,17.23
2023-05-08T12:45:47.741Z,17.23
2023-05-08T12:48:19.002Z,17.29
2023-05-08T12:50:50.391Z,17.27
2023-05-08T12:53:23.259Z,17.28
2023-05-08T12:55:59.130Z,17.34
2023-05-08T12:58:35.295Z,17.32
2023-05-08T13:01:11.370Z,17.35
2023-05-08T13:03:43.335Z,17.35
2023-05-08T13:06:24.731Z,17.35
2023-05-08T13:08:56.914Z,17.38
2023-05-08T13:11:36.091Z,17.26
2023-05-08T13:14:07.666Z,17.24
2023-05-08T13:16:49.468Z,17.23
2023-05-08T13:19:20.518Z,17.24
2023-05-08T13:21:51.864Z,17.27
2023-05-08T13:24:23.394Z,17.17
2023-05-08T13:26:54.758Z,17.18
2023-05-08T13:29:25.844Z,17.15
2023-05-08T13:31:57.268Z,17.13
2023-05-08T13:34:28.760Z,17.08
2023-05-08T13:37:00.311Z,17.02
2023-05-08T13:39:34.276Z,16.99
2023-05-08T13:42:06.322Z,17.00
2023-05-08T13:44:36.943Z,16.99
2023-05-08T13:47:08.173Z,16.92
2023-05-08T13:49:39.547Z,16.89
2023-05-08T13:52:10.921Z,16.87
2023-05-08T13:54:42.287Z,16.79
2023-05-08T13:57:14.277Z,16.80
2023-05-08T13:59:53.179Z,16.86
2023-05-08T14:02:24.629Z,16.88
2023-05-08T14:04:56.294Z,16.87
2023-05-08T14:07:27.754Z,16.86
2023-05-08T14:09:59.199Z,16.77
2023-05-08T14:12:30.383Z,16.77
2023-05-08T14:15:01.773Z,16.80
2023-05-08T14:17:36.678Z,16.84
2023-05-08T14:20:11.057Z,16.81
2023-05-08T14:22:43.261Z,16.75
2023-05-08T14:25:14.961Z,16.73
2023-05-08T14:27:46.549Z,16.71
2023-05-08T14:30:17.997Z,16.69
2023-05-08T14:32:49.187Z,16.64
2023-05-08T14:35:21.003Z,16.61
2023-05-08T14:37:51.838Z,16.68
2023-05-08T14:40:24.605Z,16.66
2023-05-08T14:42:56.271Z,16.68
2023-05-08T14:45:27.539Z,16.72
2023-05-08T14:47:58.784Z,16.72
2023-05-08T14:50:30.369Z,16.77
2023-05-08T14:53:01.928Z,16.79
2023-05-08T14:55:33.590Z,16.78
2023-05-08T14:58:06.463Z,16.86
2023-05-08T15:00:38.031Z,16.88
2023-05-08T15:03:09.768Z,16.97
2023-05-08T15:05:40.797Z,17.01
2023-05-08T15:08:12.487Z,16.95
2023-05-08T15:10:44.281Z,16.94
2023-05-08T15:13:15.908Z,16.92
2023-05-08T15:15:47.131Z,16.87
2023-05-08T15:18:18.438Z,16.90
2023-05-08T15:20:50.181Z,16.88
2023-05-08T15:23:22.643Z,16.83
2023-05-08T15:25:54.009Z,16.82
2023-05-08T15:28:25.553Z,16.81
2023-05-08T15:30:57.007Z,16.81
2023-05-08T15:33:28.729Z,16.75
2023-05-08T15:36:00.366Z,16.83
2023-05-08T15:38:31.832Z,16.88
2023-05-08T15:41:03.513Z,16.82
2023-05-08T15:43:35.023Z,16.78
2023-05-08T15:46:06.123Z,16.82
2023-05-08T15:48:37.525Z,16.81
2023-05-08T15:51:08.849Z,16.76
2023-05-08T15:53:40.542Z,16.75
2023-05-08T15:56:12.109Z,16.73
2023-05-08T15:58:45.328Z,16.70
2023-05-08T16:01:16.568Z,16.72
2023-05-08T16:03:48.447Z,16.63
2023-05-08T16:06:19.131Z,16.67
2023-05-08T16:08:50.596Z,16.64
2023-05-08T16:11:23.277Z,16.64
2023-05-08T16:13:54.784Z,16.63
2023-05-08T16:16:26.424Z,16.60
2023-05-08T16:18:58.014Z,16.58
2023-05-08T16:21:29.224Z,16.60
2023-05-08T16:24:00.797Z,16.60
2023-05-08T16:26:32.137Z,16.54
2023-05-08T16:29:03.833Z,16.58
2023-05-08T16:31:35.089Z,16.47
2023-05-08T16:34:06.530Z,16.57
2023-05-08T16:36:37.782Z,16.56
2023-05-08T16:39:09.815Z,16.55
2023-05-08T16:41:40.928Z,16.62
2023-05-08T16:44:12.489Z,16.53
2023-05-08T16:46:44.112Z,16.55
2023-05-08T16:49:16.391Z,16.51
2023-05-08T16:51:48.020Z,16.49
2023-05-08T16:54:19.148Z,16.55
2023-05-08T16:56:50.404Z,16.48
2023-05-08T16:59:22.836Z,16.48
2023-05-08T17:01:53.954Z,16.56
2023-05-08T17:04:25.172Z,16.55
2023-05-08T17:06:56.960Z,16.58
2023-05-08T17:09:29.546Z,16.35
2023-05-08T17:12:03.294Z,16.42
2023-05-08T17:14:36.598Z,16.44
2023-05-08T17:17:08.315Z,16.38
2023-05-08T17:19:39.718Z,16.47
2023-05-08T17:22:11.018Z,16.34
2023-05-08T17:24:42.523Z,16.52
2023-05-08T17:27:14.254Z,16.56
2023-05-08T17:29:45.568Z,16.49
2023-05-08T17:32:16.920Z,16.55
2023-05-08T17:34:48.032Z,16.58
2023-05-08T17:37:19.166Z,16.62
2023-05-08T17:39:50.762Z,16.72
2023-05-08T17:42:22.156Z,16.71
2023-05-08T17:44:53.244Z,16.71
2023-05-08T17:47:24.509Z,16.78
2023-05-08T17:49:55.597Z,16.78
2023-05-08T17:52:27.291Z,16.72
2023-05-08T17:54:58.497Z,16.72
2023-05-08T17:57:29.830Z,16.77
2023-05-08T18:00:03.030Z,16.76
2023-05-08T18:02:39.090Z,16.83
2023-05-08T18:05:11.487Z,16.77
2023-05-08T18:07:42.864Z,16.89
2023-05-08T18:10:14.436Z,16.82
2023-05-08T18:12:45.108Z,16.80
2023-05-08T18:15:16.563Z,16.73
2023-05-08T18:17:48.016Z,16.85
2023-05-08T18:20:19.375Z,16.87
2023-05-08T18:22:50.830Z,16.91
2023-05-08T18:25:22.290Z,16.88
2023-05-08T18:27:53.522Z,16.88
2023-05-08T18:30:24.597Z,16.85
2023-05-08T18:32:55.816Z,16.86
2023-05-08T18:35:27.151Z,16.83
2023-05-08T18:37:59.097Z,16.77
2023-05-08T18:40:30.380Z,16.84
2023-05-08T18:43:01.879Z,16.77
2023-05-08T18:45:33.031Z,16.76
2023-05-08T18:48:06.967Z,16.73
2023-05-08T18:50:39.824Z,16.77
2023-05-08T18:53:11.439Z,16.81
2023-05-08T18:55:43.336Z,16.87
2023-05-08T18:58:15.509Z,16.94
2023-05-08T19:00:47.826Z,16.91
2023-05-08T19:03:19.934Z,17.04
2023-05-08T19:05:52.843Z,17.05
2023-05-08T19:08:24.475Z,17.14
2023-05-08T19:10:55.852Z,17.28
2023-05-08T19:13:27.322Z,17.37
2023-05-08T19:15:58.859Z,17.58
2023-05-08T19:18:31.815Z,17.55
2023-05-08T19:21:04.013Z,17.69
2023-05-08T19:23:35.459Z,17.74
2023-05-08T19:26:07.200Z,17.81
2023-05-08T19:28:38.479Z,17.76
2023-05-08T19:31:09.819Z,17.83
2023-05-08T19:33:41.520Z,17.83
2023-05-08T19:36:13.353Z,17.82
2023-05-08T19:38:45.028Z,17.83
2023-05-08T19:41:16.705Z,17.83
2023-05-08T19:43:48.111Z,17.84
2023-05-08T19:46:19.477Z,17.84
2023-05-08T19:48:50.689Z,17.88
2023-05-08T19:51:22.216Z,17.90
2023-05-08T19:53:53.393Z,17.94
2023-05-08T19:56:24.398Z,17.93
2023-05-08T19:58:55.670Z,17.92
2023-05-08T20:01:27.048Z,18.06
2023-05-08T20:04:00.665Z,18.09
2023-05-08T20:06:32.510Z,18.09
2023-05-08T20:09:04.213Z,18.11
2023-05-08T20:11:39.185Z,18.16
2023-05-08T20:14:10.435Z,18.31
2023-05-08T20:16:43.334Z,18.39
2023-05-08T20:19:14.859Z,18.39
2023-05-08T20:21:46.635Z,18.43
2023-05-08T20:24:18.545Z,18.48
2023-05-08T20:26:49.976Z,18.63
2023-05-08T20:29:21.280Z,18.66
2023-05-08T20:31:53.398Z,18.53
2023-05-08T20:34:24.916Z,18.72
2023-05-08T20:36:57.710Z,18.67
2023-05-08T20:39:29.625Z,18.84
2023-05-08T20:42:00.249Z,19.15
2023-05-08T20:44:31.594Z,19.31
2023-05-08T20:47:02.907Z,19.72
2023-05-08T20:49:34.497Z,19.47
2023-05-08T20:52:06.961Z,19.65
2023-05-08T20:54:38.057Z,19.45
2023-05-08T20:57:09.693Z,19.40
2023-05-08T20:59:42.146Z,19.49
2023-05-08T21:02:14.027Z,19.54
2023-05-08T21:04:45.882Z,19.59
2023-05-08T21:07:17.320Z,19.64
2023-05-08T21:09:48.779Z,19.44
2023-05-08T21:12:19.975Z,19.41
2023-05-08T21:14:51.601Z,19.69
2023-05-08T21:17:23.262Z,19.56
2023-05-08T21:19:54.764Z,19.42
2023-05-08T21:22:26.352Z,19.49
2023-05-08T21:24:57.639Z,19.61
2023-05-08T21:27:29.027Z,19.57
2023-05-08T21:30:00.322Z,19.79
2023-05-08T21:32:35.203Z,19.75
2023-05-08T21:35:06.847Z,19.69
2023-05-08T21:37:37.696Z,19.69
2023-05-08T21:40:09.729Z,19.88
2023-05-08T21:42:42.458Z,19.85
2023-05-08T21:45:14.251Z,19.98
2023-05-08T21:47:45.694Z,20.23
2023-05-08T21:50:17.321Z,20.14
2023-05-08T21:52:48.372Z,20.27
2023-05-08T21:55:20.053Z,20.28
2023-05-08T21:57:51.657Z,20.06
2023-05-08T22:00:23.653Z,20.08
2023-05-08T22:02:57.840Z,20.08
2023-05-08T22:05:29.032Z,20.08
2023-05-08T22:08:00.353Z,20.04
2023-05-08T22:10:31.592Z,20.07
2023-05-08T22:13:03.435Z,20.13
2023-05-08T22:15:35.334Z,20.04
2023-05-08T22:18:07.140Z,20.06
2023-05-08T22:20:38.706Z,20.11
2023-05-08T22:23:10.069Z,19.98
2023-05-08T22:25:41.449Z,19.96
2023-05-08T22:28:12.848Z,19.97
2023-05-08T22:30:44.579Z,20.00
2023-05-08T22:33:15.487Z,20.23
2023-05-08T22:35:46.722Z,20.23
2023-05-08T22:38:17.871Z,20.37
2023-05-08T22:40:49.746Z,20.31
2023-05-08T22:43:21.987Z,20.16
2023-05-08T22:45:53.896Z,20.01
2023-05-08T22:48:25.377Z,20.18
2023-05-08T22:50:55.933Z,20.19
2023-05-08T22:53:27.407Z,20.05
2023-05-08T22:55:58.622Z,20.13
2023-05-08T22:58:30.815Z,20.14
2023-05-08T23:01:02.913Z,20.12
2023-05-08T23:03:35.204Z,20.09
2023-05-08T23:06:08.452Z,19.99
2023-05-08T23:08:39.873Z,19.92
2023-05-08T23:11:11.798Z,19.93
2023-05-08T23:13:42.785Z,19.79
2023-05-08T23:16:14.387Z,19.45
2023-05-08T23:18:45.122Z,19.33
2023-05-08T23:21:16.504Z,19.23
2023-05-08T23:23:48.088Z,19.22
2023-05-08T23:26:18.654Z,19.32
2023-05-08T23:28:49.978Z,19.19
2023-05-08T23:31:21.091Z,19.14
2023-05-08T23:33:52.039Z,19.11
2023-05-08T23:36:23.803Z,19.06
2023-05-08T23:38:54.609Z,19.05
2023-05-08T23:41:27.561Z,18.84
2023-05-08T23:43:58.792Z,18.85
2023-05-08T23:46:30.161Z,19.05
2023-05-08T23:49:01.312Z,18.88
2023-05-08T23:51:33.572Z,18.17
2023-05-08T23:54:07.281Z,17.84
2023-05-08T23:56:38.969Z,17.54
2023-05-08T23:59:10.240Z,17.53
